Pilot L239 — OJ9461 — position and weather

sailwx.info

Track history (hours):
 
Tides and Currents Weather Stations Pressure Air Temp Water Temp Dewpoint Dewpoint Depression Visibility Wind Speed Wind Dir Waves Ship Positions

Pilot L239

Last reported at 2014-Sep-23 12:33 UTC. Time now 2014-Oct-01 16:25 UTC.
Position N 60°06' E 024°58'.
Warning: this ship's position is 8 days out of date.

Length 15 m.

Type: Pilot. MMSI: 230035440.

Date/timePositionNaut miles runAvg speedWind from/ knotsBaromVisibWave heightAir tempDewpointWater temp
2014-Sep-23 12:33N 60°06' E 024°58'0 0.0
2014-Sep-23 11:22N 60°06' E 024°58'4 4.4
2014-Sep-23 10:29N 60°10' E 024°58'4 1.3
2014-Sep-23 07:27N 60°06' E 024°58'0 0.0
2014-Sep-23 06:20N 60°06' E 024°58'0 0.0
2014-Sep-23 04:18N 60°06' E 024°58'1 1.6
2014-Sep-23 03:33N 60°07' E 024°59'3 0.6
2014-Sep-22 22:22N 60°07' E 025°05'0 0.0
2014-Sep-22 20:12N 60°07' E 025°05'3 0.4
2014-Sep-22 13:26N 60°06' E 024°60'1 0.7
2014-Sep-22 12:17N 60°06' E 024°58'0 0.0
2014-Sep-22 11:24N 60°06' E 024°58'1 0.6
2014-Sep-22 09:33N 60°06' E 025°00'1 0.5
2014-Sep-22 07:11N 60°06' E 024°58'4 5.0
2014-Sep-22 06:25N 60°10' E 024°58'4 1.7
2014-Sep-22 04:16N 60°06' E 024°59'1 0.0
2014-Sep-21 15:33N 60°06' E 024°58'0 0.0
2014-Sep-21 04:31N 60°06' E 024°59'4 0.3
2014-Sep-20 11:33N 60°06' E 025°07'4 2.2
2014-Sep-20 09:32N 60°06' E 024°58'4 3.7
2014-Sep-20 08:29N 60°10' E 024°58'8 0.5
2014-Sep-19 16:34N 60°06' E 025°11'9 2.9
2014-Sep-19 13:33N 60°04' E 024°53'4 1.5
2014-Sep-19 11:15N 60°06' E 024°58'0 0.0
2014-Sep-19 07:16N 60°06' E 024°58'5 6.9
2014-Sep-19 06:29N 60°06' E 025°09'5 2.4
2014-Sep-19 04:12N 60°06' E 024°58'5 0.4
2014-Sep-18 13:33N 60°06' E 025°09'0 0.1
2014-Sep-18 07:33N 60°06' E 025°08'6 0.4
2014-Sep-17 14:28N 60°04' E 024°57'3 0.8
2014-Sep-17 11:07N 60°06' E 024°58'0 0.0
2014-Sep-17 09:20N 60°06' E 024°58'0 0.0
2014-Sep-17 08:22N 60°06' E 024°58'0 0.2
2014-Sep-17 06:20N 60°06' E 024°59'0 0.2
2014-Sep-17 04:30N 60°06' E 024°58'0 0.0
2014-Sep-16 13:20N 60°06' E 024°58'5 2.4
2014-Sep-16 11:25N 60°06' E 025°08'6 6.6
2014-Sep-16 10:33N 60°11' E 025°01'1 0.2
2014-Sep-16 03:33N 60°09' E 024°59'4 0.5
2014-Sep-15 19:33N 60°07' E 025°04'3 0.6
2014-Sep-15 15:10N 60°06' E 024°59'1 0.3
2014-Sep-15 13:12N 60°06' E 024°60'1 2.3
2014-Sep-15 12:33N 60°07' E 025°02'4 4.0
2014-Sep-15 11:33N 60°10' E 024°58'4 2.9
2014-Sep-15 10:14N 60°06' E 024°58'0 0.0
2014-Sep-15 07:30N 60°06' E 024°58'0 0.0
2014-Sep-15 04:11N 60°06' E 024°59'2 3.3
2014-Sep-15 03:33N 60°08' E 024°60'2 0.1
2014-Sep-14 13:11N 60°07' E 024°59'1 0.2
2014-Sep-14 09:33N 60°07' E 024°59'3 2.4
2014-Sep-14 08:23N 60°10' E 024°58'7 3.5
2014-Sep-14 06:25N 60°03' E 024°58'6 0.4
2014-Sep-13 15:06N 60°05' E 025°10'6 3.6
2014-Sep-13 13:26N 60°06' E 024°58'  
Track history (hours):
 
Tides and Currents Weather Stations Pressure Air Temp Water Temp Dewpoint Dewpoint Depression Visibility Wind Speed Wind Dir Waves Ship Positions

Pilot L239

Last reported at 2014-Sep-23 12:33 UTC. Time now 2014-Oct-01 16:25 UTC.
Position N 60°06' E 024°58'.
Warning: this ship's position is 8 days out of date.

Length 15 m.

Type: Pilot. MMSI: 230035440.

Date/timePositionNaut miles runAvg speedWind from/ knotsBaromVisibWave heightAir tempDewpointWater temp
2014-Sep-23 12:33N 60°06' E 024°58'0 0.0
2014-Sep-23 11:22N 60°06' E 024°58'4 4.4
2014-Sep-23 10:29N 60°10' E 024°58'4 1.3
2014-Sep-23 07:27N 60°06' E 024°58'0 0.0
2014-Sep-23 06:20N 60°06' E 024°58'0 0.0
2014-Sep-23 04:18N 60°06' E 024°58'1 1.6
2014-Sep-23 03:33N 60°07' E 024°59'3 0.6
2014-Sep-22 22:22N 60°07' E 025°05'0 0.0
2014-Sep-22 20:12N 60°07' E 025°05'3 0.4
2014-Sep-22 13:26N 60°06' E 024°60'1 0.7
2014-Sep-22 12:17N 60°06' E 024°58'0 0.0
2014-Sep-22 11:24N 60°06' E 024°58'1 0.6
2014-Sep-22 09:33N 60°06' E 025°00'1 0.5
2014-Sep-22 07:11N 60°06' E 024°58'4 5.0
2014-Sep-22 06:25N 60°10' E 024°58'4 1.7
2014-Sep-22 04:16N 60°06' E 024°59'1 0.0
2014-Sep-21 15:33N 60°06' E 024°58'0 0.0
2014-Sep-21 04:31N 60°06' E 024°59'4 0.3
2014-Sep-20 11:33N 60°06' E 025°07'4 2.2
2014-Sep-20 09:32N 60°06' E 024°58'4 3.7
2014-Sep-20 08:29N 60°10' E 024°58'8 0.5
2014-Sep-19 16:34N 60°06' E 025°11'9 2.9
2014-Sep-19 13:33N 60°04' E 024°53'4 1.5
2014-Sep-19 11:15N 60°06' E 024°58'0 0.0
2014-Sep-19 07:16N 60°06' E 024°58'5 6.9
2014-Sep-19 06:29N 60°06' E 025°09'5 2.4
2014-Sep-19 04:12N 60°06' E 024°58'5 0.4
2014-Sep-18 13:33N 60°06' E 025°09'0 0.1
2014-Sep-18 07:33N 60°06' E 025°08'6 0.4
2014-Sep-17 14:28N 60°04' E 024°57'3 0.8
2014-Sep-17 11:07N 60°06' E 024°58'0 0.0
2014-Sep-17 09:20N 60°06' E 024°58'0 0.0
2014-Sep-17 08:22N 60°06' E 024°58'0 0.2
2014-Sep-17 06:20N 60°06' E 024°59'0 0.2
2014-Sep-17 04:30N 60°06' E 024°58'0 0.0
2014-Sep-16 13:20N 60°06' E 024°58'5 2.4
2014-Sep-16 11:25N 60°06' E 025°08'6 6.6
2014-Sep-16 10:33N 60°11' E 025°01'1 0.2
2014-Sep-16 03:33N 60°09' E 024°59'4 0.5
2014-Sep-15 19:33N 60°07' E 025°04'3 0.6
2014-Sep-15 15:10N 60°06' E 024°59'1 0.3
2014-Sep-15 13:12N 60°06' E 024°60'1 2.3
2014-Sep-15 12:33N 60°07' E 025°02'4 4.0
2014-Sep-15 11:33N 60°10' E 024°58'4 2.9
2014-Sep-15 10:14N 60°06' E 024°58'0 0.0
2014-Sep-15 07:30N 60°06' E 024°58'0 0.0
2014-Sep-15 04:11N 60°06' E 024°59'2 3.3
2014-Sep-15 03:33N 60°08' E 024°60'2 0.1
2014-Sep-14 13:11N 60°07' E 024°59'1 0.2
2014-Sep-14 09:33N 60°07' E 024°59'3 2.4
2014-Sep-14 08:23N 60°10' E 024°58'7 3.5
2014-Sep-14 06:25N 60°03' E 024°58'6 0.4
2014-Sep-13 15:06N 60°05' E 025°10'6 3.6
2014-Sep-13 13:26N 60°06' E 024°58'  

Dump ship's entire track history